sensor_id;sensor_type;location;lat;lon;timestamp;P1;durP1;ratioP1;P2;durP2;ratioP2
25107;SDS011;13090;53.422;7.670;2024-01-30T00:01:45;18.85;;;12.07;;
25107;SDS011;13090;53.422;7.670;2024-01-30T00:07:26;17.40;;;12.43;;
25107;SDS011;13090;53.422;7.670;2024-01-30T00:13:07;22.05;;;12.45;;
25107;SDS011;13090;53.422;7.670;2024-01-30T00:18:49;18.65;;;11.60;;
25107;SDS011;13090;53.422;7.670;2024-01-30T00:24:29;17.90;;;11.90;;
25107;SDS011;13090;53.422;7.670;2024-01-30T00:30:10;19.23;;;11.80;;
25107;SDS011;13090;53.422;7.670;2024-01-30T00:35:52;19.25;;;12.07;;
25107;SDS011;13090;53.422;7.670;2024-01-30T00:41:33;25.52;;;12.23;;
25107;SDS011;13090;53.422;7.670;2024-01-30T00:47:14;19.92;;;11.40;;
25107;SDS011;13090;53.422;7.670;2024-01-30T00:52:56;16.52;;;11.20;;
25107;SDS011;13090;53.422;7.670;2024-01-30T00:58:36;17.33;;;11.75;;
25107;SDS011;13090;53.422;7.670;2024-01-30T01:04:17;23.75;;;12.38;;
25107;SDS011;13090;53.422;7.670;2024-01-30T01:09:59;22.27;;;12.65;;
25107;SDS011;13090;53.422;7.670;2024-01-30T01:15:39;19.15;;;11.95;;
25107;SDS011;13090;53.422;7.670;2024-01-30T01:21:20;19.85;;;11.90;;
25107;SDS011;13090;53.422;7.670;2024-01-30T01:27:02;24.75;;;13.35;;
25107;SDS011;13090;53.422;7.670;2024-01-30T01:32:42;18.20;;;12.18;;
25107;SDS011;13090;53.422;7.670;2024-01-30T01:38:22;21.08;;;13.55;;
25107;SDS011;13090;53.422;7.670;2024-01-30T01:44:04;24.55;;;12.63;;
25107;SDS011;13090;53.422;7.670;2024-01-30T01:49:45;23.30;;;13.18;;
25107;SDS011;13090;53.422;7.670;2024-01-30T01:55:25;19.50;;;13.15;;
25107;SDS011;13090;53.422;7.670;2024-01-30T02:01:07;21.48;;;12.68;;
25107;SDS011;13090;53.422;7.670;2024-01-30T02:06:48;19.85;;;12.80;;
25107;SDS011;13090;53.422;7.670;2024-01-30T02:12:29;19.52;;;11.10;;
25107;SDS011;13090;53.422;7.670;2024-01-30T02:18:11;21.90;;;13.30;;
25107;SDS011;13090;53.422;7.670;2024-01-30T02:23:53;21.42;;;12.88;;
25107;SDS011;13090;53.422;7.670;2024-01-30T02:29:35;20.73;;;13.13;;
25107;SDS011;13090;53.422;7.670;2024-01-30T02:35:15;19.90;;;13.13;;
25107;SDS011;13090;53.422;7.670;2024-01-30T02:40:57;18.45;;;12.70;;
25107;SDS011;13090;53.422;7.670;2024-01-30T02:46:37;18.15;;;11.98;;
25107;SDS011;13090;53.422;7.670;2024-01-30T02:52:18;18.85;;;12.27;;
25107;SDS011;13090;53.422;7.670;2024-01-30T02:58:00;22.20;;;12.57;;
25107;SDS011;13090;53.422;7.670;2024-01-30T03:03:40;24.65;;;12.85;;
25107;SDS011;13090;53.422;7.670;2024-01-30T03:09:21;22.15;;;12.25;;
25107;SDS011;13090;53.422;7.670;2024-01-30T03:15:02;18.63;;;12.70;;
25107;SDS011;13090;53.422;7.670;2024-01-30T03:20:43;18.25;;;12.75;;
25107;SDS011;13090;53.422;7.670;2024-01-30T03:26:23;21.00;;;12.73;;
25107;SDS011;13090;53.422;7.670;2024-01-30T03:32:05;17.17;;;11.18;;
25107;SDS011;13090;53.422;7.670;2024-01-30T03:37:46;18.63;;;12.98;;
25107;SDS011;13090;53.422;7.670;2024-01-30T03:43:26;20.38;;;12.02;;
25107;SDS011;13090;53.422;7.670;2024-01-30T03:49:09;19.95;;;13.07;;
25107;SDS011;13090;53.422;7.670;2024-01-30T03:54:49;18.70;;;12.75;;
25107;SDS011;13090;53.422;7.670;2024-01-30T04:00:29;16.00;;;11.63;;
25107;SDS011;13090;53.422;7.670;2024-01-30T04:06:11;18.33;;;12.43;;
25107;SDS011;13090;53.422;7.670;2024-01-30T04:11:52;20.90;;;13.30;;
25107;SDS011;13090;53.422;7.670;2024-01-30T04:17:32;19.95;;;12.82;;
25107;SDS011;13090;53.422;7.670;2024-01-30T04:23:14;18.77;;;12.82;;
25107;SDS011;13090;53.422;7.670;2024-01-30T04:28:54;20.75;;;13.05;;
25107;SDS011;13090;53.422;7.670;2024-01-30T04:34:35;19.60;;;12.25;;
25107;SDS011;13090;53.422;7.670;2024-01-30T04:40:18;19.15;;;12.75;;
25107;SDS011;13090;53.422;7.670;2024-01-30T04:45:58;18.02;;;12.48;;
25107;SDS011;13090;53.422;7.670;2024-01-30T04:51:39;17.73;;;12.52;;
25107;SDS011;13090;53.422;7.670;2024-01-30T04:57:21;30.73;;;16.75;;
25107;SDS011;13090;53.422;7.670;2024-01-30T05:03:01;19.98;;;13.27;;
25107;SDS011;13090;53.422;7.670;2024-01-30T05:08:41;23.92;;;14.00;;
25107;SDS011;13090;53.422;7.670;2024-01-30T05:14:23;24.20;;;16.63;;
25107;SDS011;13090;53.422;7.670;2024-01-30T05:20:04;23.05;;;13.88;;
25107;SDS011;13090;53.422;7.670;2024-01-30T05:25:45;24.48;;;13.82;;
25107;SDS011;13090;53.422;7.670;2024-01-30T05:31:27;23.30;;;14.60;;
25107;SDS011;13090;53.422;7.670;2024-01-30T05:37:08;23.77;;;15.57;;
25107;SDS011;13090;53.422;7.670;2024-01-30T05:42:48;21.88;;;12.95;;
25107;SDS011;13090;53.422;7.670;2024-01-30T05:48:30;18.38;;;13.10;;
25107;SDS011;13090;53.422;7.670;2024-01-30T05:54:11;20.23;;;12.95;;
25107;SDS011;13090;53.422;7.670;2024-01-30T05:59:55;21.60;;;13.95;;
25107;SDS011;13090;53.422;7.670;2024-01-30T06:05:38;22.17;;;13.88;;
25107;SDS011;13090;53.422;7.670;2024-01-30T06:11:18;17.15;;;12.52;;
25107;SDS011;13090;53.422;7.670;2024-01-30T06:16:59;21.25;;;12.48;;
25107;SDS011;13090;53.422;7.670;2024-01-30T06:22:41;25.38;;;12.48;;
25107;SDS011;13090;53.422;7.670;2024-01-30T06:28:22;21.48;;;12.73;;
25107;SDS011;13090;53.422;7.670;2024-01-30T06:34:03;21.77;;;12.60;;
25107;SDS011;13090;53.422;7.670;2024-01-30T06:39:45;16.95;;;11.90;;
25107;SDS011;13090;53.422;7.670;2024-01-30T06:45:26;16.73;;;12.15;;
25107;SDS011;13090;53.422;7.670;2024-01-30T06:51:06;18.95;;;12.13;;
25107;SDS011;13090;53.422;7.670;2024-01-30T06:56:48;18.08;;;11.73;;
25107;SDS011;13090;53.422;7.670;2024-01-30T07:02:29;16.58;;;11.20;;
25107;SDS011;13090;53.422;7.670;2024-01-30T07:08:09;17.80;;;11.20;;
25107;SDS011;13090;53.422;7.670;2024-01-30T07:13:51;19.08;;;11.63;;
25107;SDS011;13090;53.422;7.670;2024-01-30T07:19:31;19.23;;;11.43;;
25107;SDS011;13090;53.422;7.670;2024-01-30T07:25:12;16.92;;;11.20;;
25107;SDS011;13090;53.422;7.670;2024-01-30T07:30:54;16.65;;;10.80;;
25107;SDS011;13090;53.422;7.670;2024-01-30T07:36:34;16.42;;;11.20;;
25107;SDS011;13090;53.422;7.670;2024-01-30T07:42:15;16.65;;;10.52;;
25107;SDS011;13090;53.422;7.670;2024-01-30T07:47:57;17.42;;;10.80;;
25107;SDS011;13090;53.422;7.670;2024-01-30T07:53:37;15.20;;;10.63;;
25107;SDS011;13090;53.422;7.670;2024-01-30T07:59:18;14.63;;;10.30;;
25107;SDS011;13090;53.422;7.670;2024-01-30T08:05:00;17.05;;;11.82;;
25107;SDS011;13090;53.422;7.670;2024-01-30T08:10:40;17.15;;;10.50;;
25107;SDS011;13090;53.422;7.670;2024-01-30T08:16:21;16.98;;;11.50;;
25107;SDS011;13090;53.422;7.670;2024-01-30T08:22:03;19.05;;;12.63;;
25107;SDS011;13090;53.422;7.670;2024-01-30T08:27:43;25.63;;;16.40;;
25107;SDS011;13090;53.422;7.670;2024-01-30T08:33:24;23.20;;;13.02;;
25107;SDS011;13090;53.422;7.670;2024-01-30T08:39:06;17.48;;;10.82;;
25107;SDS011;13090;53.422;7.670;2024-01-30T08:44:46;16.63;;;11.15;;
25107;SDS011;13090;53.422;7.670;2024-01-30T08:50:27;14.57;;;9.75;;
25107;SDS011;13090;53.422;7.670;2024-01-30T08:56:09;16.20;;;9.23;;
25107;SDS011;13090;53.422;7.670;2024-01-30T09:01:49;15.98;;;9.15;;
25107;SDS011;13090;53.422;7.670;2024-01-30T09:07:45;14.47;;;9.67;;
25107;SDS011;13090;53.422;7.670;2024-01-30T09:13:27;13.63;;;9.10;;
25107;SDS011;13090;53.422;7.670;2024-01-30T09:19:08;12.98;;;8.73;;
25107;SDS011;13090;53.422;7.670;2024-01-30T09:24:48;13.23;;;8.05;;
25107;SDS011;13090;53.422;7.670;2024-01-30T09:30:30;13.35;;;8.68;;
25107;SDS011;13090;53.422;7.670;2024-01-30T09:36:10;14.38;;;7.97;;
25107;SDS011;13090;53.422;7.670;2024-01-30T09:41:53;15.07;;;8.35;;
25107;SDS011;13090;53.422;7.670;2024-01-30T09:47:42;15.45;;;8.38;;
25107;SDS011;13090;53.422;7.670;2024-01-30T09:53:24;17.05;;;9.05;;
25107;SDS011;13090;53.422;7.670;2024-01-30T09:59:05;11.77;;;7.97;;
25107;SDS011;13090;53.422;7.670;2024-01-30T10:04:48;11.70;;;8.00;;
25107;SDS011;13090;53.422;7.670;2024-01-30T10:10:29;13.77;;;8.43;;
25107;SDS011;13090;53.422;7.670;2024-01-30T10:16:10;12.20;;;8.32;;
25107;SDS011;13090;53.422;7.670;2024-01-30T10:21:54;11.07;;;7.50;;
25107;SDS011;13090;53.422;7.670;2024-01-30T10:27:35;12.68;;;7.88;;
25107;SDS011;13090;53.422;7.670;2024-01-30T10:33:16;12.30;;;7.88;;
25107;SDS011;13090;53.422;7.670;2024-01-30T10:38:59;10.98;;;6.97;;
25107;SDS011;13090;53.422;7.670;2024-01-30T10:44:44;9.18;;;6.47;;
25107;SDS011;13090;53.422;7.670;2024-01-30T10:50:27;13.43;;;7.68;;
25107;SDS011;13090;53.422;7.670;2024-01-30T10:56:12;12.90;;;7.50;;
25107;SDS011;13090;53.422;7.670;2024-01-30T11:01:53;11.50;;;8.07;;
25107;SDS011;13090;53.422;7.670;2024-01-30T11:07:34;11.65;;;7.55;;
25107;SDS011;13090;53.422;7.670;2024-01-30T11:13:18;9.15;;;6.60;;
25107;SDS011;13090;53.422;7.670;2024-01-30T11:19:00;16.45;;;8.05;;
25107;SDS011;13090;53.422;7.670;2024-01-30T11:24:41;12.75;;;7.43;;
25107;SDS011;13090;53.422;7.670;2024-01-30T11:30:23;11.73;;;6.82;;
25107;SDS011;13090;53.422;7.670;2024-01-30T11:36:05;10.35;;;6.40;;
25107;SDS011;13090;53.422;7.670;2024-01-30T11:41:45;16.00;;;7.35;;
25107;SDS011;13090;53.422;7.670;2024-01-30T11:47:29;11.23;;;7.35;;
25107;SDS011;13090;53.422;7.670;2024-01-30T11:53:09;10.18;;;7.22;;
25107;SDS011;13090;53.422;7.670;2024-01-30T11:58:50;14.85;;;7.30;;
25107;SDS011;13090;53.422;7.670;2024-01-30T12:04:32;12.80;;;7.47;;
25107;SDS011;13090;53.422;7.670;2024-01-30T12:10:13;13.18;;;6.38;;
25107;SDS011;13090;53.422;7.670;2024-01-30T12:15:54;13.23;;;7.10;;
25107;SDS011;13090;53.422;7.670;2024-01-30T12:21:37;17.55;;;7.88;;
25107;SDS011;13090;53.422;7.670;2024-01-30T12:27:18;9.68;;;6.40;;
25107;SDS011;13090;53.422;7.670;2024-01-30T12:32:58;14.88;;;7.60;;
25107;SDS011;13090;53.422;7.670;2024-01-30T12:38:40;11.45;;;7.00;;
25107;SDS011;13090;53.422;7.670;2024-01-30T12:44:21;11.80;;;7.30;;
25107;SDS011;13090;53.422;7.670;2024-01-30T12:50:02;11.27;;;7.40;;
25107;SDS011;13090;53.422;7.670;2024-01-30T12:55:43;11.57;;;7.78;;
25107;SDS011;13090;53.422;7.670;2024-01-30T13:01:24;11.38;;;6.75;;
25107;SDS011;13090;53.422;7.670;2024-01-30T13:07:04;10.70;;;6.55;;
25107;SDS011;13090;53.422;7.670;2024-01-30T13:12:46;9.63;;;6.95;;
25107;SDS011;13090;53.422;7.670;2024-01-30T13:18:27;14.85;;;7.43;;
25107;SDS011;13090;53.422;7.670;2024-01-30T13:24:07;15.88;;;7.55;;
25107;SDS011;13090;53.422;7.670;2024-01-30T13:29:49;14.50;;;6.80;;
25107;SDS011;13090;53.422;7.670;2024-01-30T13:35:29;16.98;;;5.22;;
25107;SDS011;13090;53.422;7.670;2024-01-30T13:41:10;14.30;;;5.07;;
25107;SDS011;13090;53.422;7.670;2024-01-30T13:46:52;11.10;;;3.97;;
25107;SDS011;13090;53.422;7.670;2024-01-30T13:52:32;9.10;;;3.88;;
25107;SDS011;13090;53.422;7.670;2024-01-30T13:58:23;11.85;;;4.18;;
25107;SDS011;13090;53.422;7.670;2024-01-30T14:04:05;7.20;;;3.90;;
25107;SDS011;13090;53.422;7.670;2024-01-30T14:09:49;7.45;;;3.78;;
25107;SDS011;13090;53.422;7.670;2024-01-30T14:15:30;10.98;;;3.70;;
25107;SDS011;13090;53.422;7.670;2024-01-30T14:21:12;8.55;;;3.42;;
25107;SDS011;13090;53.422;7.670;2024-01-30T14:26:52;7.68;;;3.15;;
25107;SDS011;13090;53.422;7.670;2024-01-30T14:32:32;5.10;;;2.60;;
25107;SDS011;13090;53.422;7.670;2024-01-30T14:38:14;2.30;;;1.50;;
25107;SDS011;13090;53.422;7.670;2024-01-30T14:43:55;2.97;;;1.45;;
25107;SDS011;13090;53.422;7.670;2024-01-30T14:49:36;2.38;;;1.05;;
25107;SDS011;13090;53.422;7.670;2024-01-30T14:55:17;3.20;;;1.08;;
25107;SDS011;13090;53.422;7.670;2024-01-30T15:00:58;2.72;;;1.08;;
25107;SDS011;13090;53.422;7.670;2024-01-30T15:06:38;1.80;;;0.80;;
25107;SDS011;13090;53.422;7.670;2024-01-30T15:12:20;1.80;;;1.15;;
25107;SDS011;13090;53.422;7.670;2024-01-30T15:18:01;1.63;;;1.00;;
25107;SDS011;13090;53.422;7.670;2024-01-30T15:23:42;1.38;;;1.15;;
25107;SDS011;13090;53.422;7.670;2024-01-30T15:29:23;1.80;;;0.90;;
25107;SDS011;13090;53.422;7.670;2024-01-30T15:35:04;1.65;;;1.10;;
25107;SDS011;13090;53.422;7.670;2024-01-30T15:40:45;3.40;;;1.08;;
25107;SDS011;13090;53.422;7.670;2024-01-30T15:46:27;2.17;;;1.10;;
25107;SDS011;13090;53.422;7.670;2024-01-30T15:52:08;3.45;;;1.40;;
25107;SDS011;13090;53.422;7.670;2024-01-30T15:57:48;3.03;;;1.15;;
25107;SDS011;13090;53.422;7.670;2024-01-30T16:03:30;1.88;;;1.45;;
25107;SDS011;13090;53.422;7.670;2024-01-30T16:09:10;2.08;;;1.15;;
25107;SDS011;13090;53.422;7.670;2024-01-30T16:14:50;3.45;;;1.60;;
25107;SDS011;13090;53.422;7.670;2024-01-30T16:20:32;3.05;;;1.55;;
25107;SDS011;13090;53.422;7.670;2024-01-30T16:26:13;2.65;;;1.60;;
25107;SDS011;13090;53.422;7.670;2024-01-30T16:31:53;4.22;;;1.55;;
25107;SDS011;13090;53.422;7.670;2024-01-30T16:37:35;4.28;;;1.73;;
25107;SDS011;13090;53.422;7.670;2024-01-30T16:43:15;3.55;;;2.28;;
25107;SDS011;13090;53.422;7.670;2024-01-30T16:48:56;2.47;;;1.90;;
25107;SDS011;13090;53.422;7.670;2024-01-30T16:54:38;2.40;;;2.13;;
25107;SDS011;13090;53.422;7.670;2024-01-30T17:00:18;2.10;;;1.75;;
25107;SDS011;13090;53.422;7.670;2024-01-30T17:05:59;4.28;;;2.30;;
25107;SDS011;13090;53.422;7.670;2024-01-30T17:11:41;3.28;;;2.50;;
25107;SDS011;13090;53.422;7.670;2024-01-30T17:17:21;3.60;;;2.70;;
25107;SDS011;13090;53.422;7.670;2024-01-30T17:23:02;3.53;;;2.50;;
25107;SDS011;13090;53.422;7.670;2024-01-30T17:28:44;3.05;;;2.50;;
25107;SDS011;13090;53.422;7.670;2024-01-30T17:34:25;4.75;;;2.70;;
25107;SDS011;13090;53.422;7.670;2024-01-30T17:40:06;3.83;;;2.92;;
25107;SDS011;13090;53.422;7.670;2024-01-30T17:45:49;4.20;;;2.95;;
25107;SDS011;13090;53.422;7.670;2024-01-30T17:51:29;4.55;;;3.28;;
25107;SDS011;13090;53.422;7.670;2024-01-30T17:57:10;4.00;;;2.85;;
25107;SDS011;13090;53.422;7.670;2024-01-30T18:02:52;3.38;;;2.33;;
25107;SDS011;13090;53.422;7.670;2024-01-30T18:08:32;4.30;;;2.03;;
25107;SDS011;13090;53.422;7.670;2024-01-30T18:14:12;2.95;;;2.10;;
25107;SDS011;13090;53.422;7.670;2024-01-30T18:19:55;4.32;;;2.50;;
25107;SDS011;13090;53.422;7.670;2024-01-30T18:25:37;6.53;;;2.47;;
25107;SDS011;13090;53.422;7.670;2024-01-30T18:31:17;4.07;;;2.35;;
25107;SDS011;13090;53.422;7.670;2024-01-30T18:36:59;2.80;;;2.20;;
25107;SDS011;13090;53.422;7.670;2024-01-30T18:42:41;4.53;;;1.77;;
25107;SDS011;13090;53.422;7.670;2024-01-30T18:48:21;2.78;;;1.67;;
25107;SDS011;13090;53.422;7.670;2024-01-30T18:54:03;2.42;;;1.65;;
25107;SDS011;13090;53.422;7.670;2024-01-30T18:59:43;6.13;;;1.80;;
25107;SDS011;13090;53.422;7.670;2024-01-30T19:05:23;5.53;;;2.15;;
25107;SDS011;13090;53.422;7.670;2024-01-30T19:11:05;5.10;;;2.47;;
25107;SDS011;13090;53.422;7.670;2024-01-30T19:16:46;5.38;;;2.45;;
25107;SDS011;13090;53.422;7.670;2024-01-30T19:22:27;6.97;;;2.53;;
25107;SDS011;13090;53.422;7.670;2024-01-30T19:28:08;4.95;;;2.00;;
25107;SDS011;13090;53.422;7.670;2024-01-30T19:33:49;5.20;;;1.80;;
25107;SDS011;13090;53.422;7.670;2024-01-30T19:39:29;7.38;;;1.85;;
25107;SDS011;13090;53.422;7.670;2024-01-30T19:45:11;7.30;;;1.73;;
25107;SDS011;13090;53.422;7.670;2024-01-30T19:50:51;10.23;;;1.80;;
25107;SDS011;13090;53.422;7.670;2024-01-30T19:56:32;6.47;;;1.48;;
25107;SDS011;13090;53.422;7.670;2024-01-30T20:02:14;7.45;;;1.30;;
25107;SDS011;13090;53.422;7.670;2024-01-30T20:07:54;13.27;;;1.95;;
25107;SDS011;13090;53.422;7.670;2024-01-30T20:13:34;9.30;;;1.90;;
25107;SDS011;13090;53.422;7.670;2024-01-30T20:19:16;13.93;;;2.17;;
25107;SDS011;13090;53.422;7.670;2024-01-30T20:24:56;7.40;;;1.60;;
25107;SDS011;13090;53.422;7.670;2024-01-30T20:30:55;11.02;;;1.92;;
25107;SDS011;13090;53.422;7.670;2024-01-30T20:36:37;12.73;;;1.73;;
25107;SDS011;13090;53.422;7.670;2024-01-30T20:42:21;7.93;;;1.60;;
25107;SDS011;13090;53.422;7.670;2024-01-30T20:48:01;9.30;;;2.10;;
25107;SDS011;13090;53.422;7.670;2024-01-30T20:53:43;13.05;;;2.10;;
25107;SDS011;13090;53.422;7.670;2024-01-30T20:59:23;6.20;;;1.80;;
25107;SDS011;13090;53.422;7.670;2024-01-30T21:05:03;11.30;;;1.85;;
25107;SDS011;13090;53.422;7.670;2024-01-30T21:10:46;9.65;;;2.30;;
25107;SDS011;13090;53.422;7.670;2024-01-30T21:16:26;12.13;;;2.45;;
25107;SDS011;13090;53.422;7.670;2024-01-30T21:22:07;4.82;;;1.40;;
25107;SDS011;13090;53.422;7.670;2024-01-30T21:27:49;9.30;;;1.98;;
25107;SDS011;13090;53.422;7.670;2024-01-30T21:33:31;6.72;;;1.63;;
25107;SDS011;13090;53.422;7.670;2024-01-30T21:39:11;2.28;;;1.13;;
25107;SDS011;13090;53.422;7.670;2024-01-30T21:44:53;2.38;;;0.65;;
25107;SDS011;13090;53.422;7.670;2024-01-30T21:50:33;4.93;;;0.80;;
25107;SDS011;13090;53.422;7.670;2024-01-30T21:56:14;4.90;;;1.30;;
25107;SDS011;13090;53.422;7.670;2024-01-30T22:01:56;5.20;;;1.10;;
25107;SDS011;13090;53.422;7.670;2024-01-30T22:07:36;5.82;;;1.23;;
25107;SDS011;13090;53.422;7.670;2024-01-30T22:13:18;5.60;;;0.95;;
25107;SDS011;13090;53.422;7.670;2024-01-30T22:19:00;5.05;;;1.02;;
25107;SDS011;13090;53.422;7.670;2024-01-30T22:24:40;5.38;;;1.10;;
25107;SDS011;13090;53.422;7.670;2024-01-30T22:30:20;7.15;;;1.10;;
25107;SDS011;13090;53.422;7.670;2024-01-30T22:36:03;4.22;;;1.10;;
25107;SDS011;13090;53.422;7.670;2024-01-30T22:41:43;6.15;;;1.00;;
25107;SDS011;13090;53.422;7.670;2024-01-30T22:47:25;5.35;;;1.10;;
25107;SDS011;13090;53.422;7.670;2024-01-30T22:53:10;3.80;;;0.77;;
25107;SDS011;13090;53.422;7.670;2024-01-30T22:58:50;5.85;;;1.20;;
25107;SDS011;13090;53.422;7.670;2024-01-30T23:04:31;7.45;;;1.23;;
25107;SDS011;13090;53.422;7.670;2024-01-30T23:10:13;6.90;;;1.00;;
25107;SDS011;13090;53.422;7.670;2024-01-30T23:15:53;5.22;;;1.17;;
25107;SDS011;13090;53.422;7.670;2024-01-30T23:21:33;7.32;;;1.10;;
25107;SDS011;13090;53.422;7.670;2024-01-30T23:27:16;7.38;;;1.20;;
25107;SDS011;13090;53.422;7.670;2024-01-30T23:32:56;4.40;;;1.08;;
25107;SDS011;13090;53.422;7.670;2024-01-30T23:38:37;5.22;;;1.08;;
25107;SDS011;13090;53.422;7.670;2024-01-30T23:44:18;4.57;;;1.30;;
25107;SDS011;13090;53.422;7.670;2024-01-30T23:49:59;4.07;;;1.08;;
25107;SDS011;13090;53.422;7.670;2024-01-30T23:55:39;2.88;;;0.85;;
